sensor_id;sensor_type;location;lat;lon;timestamp;temperature;humidity
2893;DHT22;1456;51.840;12.184;2023-01-01T00:01:09;14.90;99.90
2893;DHT22;1456;51.840;12.184;2023-01-01T00:03:36;14.90;99.90
2893;DHT22;1456;51.840;12.184;2023-01-01T00:06:10;15.00;99.90
2893;DHT22;1456;51.840;12.184;2023-01-01T00:08:36;15.10;99.90
2893;DHT22;1456;51.840;12.184;2023-01-01T00:11:04;15.10;99.90
2893;DHT22;1456;51.840;12.184;2023-01-01T00:13:30;15.10;99.90
2893;DHT22;1456;51.840;12.184;2023-01-01T00:16:02;15.20;99.90
2893;DHT22;1456;51.840;12.184;2023-01-01T00:18:28;15.20;99.90
2893;DHT22;1456;51.840;12.184;2023-01-01T00:21:03;15.20;99.90
2893;DHT22;1456;51.840;12.184;2023-01-01T00:23:34;15.20;99.90
2893;DHT22;1456;51.840;12.184;2023-01-01T00:26:00;15.20;99.90
2893;DHT22;1456;51.840;12.184;2023-01-01T00:28:28;15.20;99.80
2893;DHT22;1456;51.840;12.184;2023-01-01T00:30:54;15.20;99.80
2893;DHT22;1456;51.840;12.184;2023-01-01T00:33:20;15.30;99.80
2893;DHT22;1456;51.840;12.184;2023-01-01T00:35:46;15.20;99.60
2893;DHT22;1456;51.840;12.184;2023-01-01T00:38:12;15.30;99.80
2893;DHT22;1456;51.840;12.184;2023-01-01T00:40:37;15.20;99.60
2893;DHT22;1456;51.840;12.184;2023-01-01T00:43:03;15.20;99.60
2893;DHT22;1456;51.840;12.184;2023-01-01T00:45:29;15.20;99.50
2893;DHT22;1456;51.840;12.184;2023-01-01T00:47:54;15.20;99.40
2893;DHT22;1456;51.840;12.184;2023-01-01T00:50:21;15.20;99.40
2893;DHT22;1456;51.840;12.184;2023-01-01T00:52:47;15.20;99.40
2893;DHT22;1456;51.840;12.184;2023-01-01T00:55:13;15.10;99.30
2893;DHT22;1456;51.840;12.184;2023-01-01T00:57:39;15.10;99.30
2893;DHT22;1456;51.840;12.184;2023-01-01T01:00:06;15.10;99.20
2893;DHT22;1456;51.840;12.184;2023-01-01T01:02:32;15.10;99.40
2893;DHT22;1456;51.840;12.184;2023-01-01T01:04:57;15.00;99.40
2893;DHT22;1456;51.840;12.184;2023-01-01T01:07:24;15.00;99.30
2893;DHT22;1456;51.840;12.184;2023-01-01T01:09:50;15.00;99.50
2893;DHT22;1456;51.840;12.184;2023-01-01T01:12:15;14.90;99.40
2893;DHT22;1456;51.840;12.184;2023-01-01T01:14:41;14.90;99.50
2893;DHT22;1456;51.840;12.184;2023-01-01T01:17:07;14.80;99.60
2893;DHT22;1456;51.840;12.184;2023-01-01T01:19:32;14.80;99.60
2893;DHT22;1456;51.840;12.184;2023-01-01T01:21:58;14.80;99.70
2893;DHT22;1456;51.840;12.184;2023-01-01T01:24:23;14.70;99.60
2893;DHT22;1456;51.840;12.184;2023-01-01T01:26:49;14.70;99.80
2893;DHT22;1456;51.840;12.184;2023-01-01T01:29:15;14.60;99.80
2893;DHT22;1456;51.840;12.184;2023-01-01T01:31:40;14.50;99.90
2893;DHT22;1456;51.840;12.184;2023-01-01T01:34:06;14.50;99.90
2893;DHT22;1456;51.840;12.184;2023-01-01T01:36:32;14.40;99.90
2893;DHT22;1456;51.840;12.184;2023-01-01T01:38:58;14.30;99.90
2893;DHT22;1456;51.840;12.184;2023-01-01T01:41:24;14.30;99.90
2893;DHT22;1456;51.840;12.184;2023-01-01T01:44:01;14.30;99.90
2893;DHT22;1456;51.840;12.184;2023-01-01T01:46:40;14.20;99.90
2893;DHT22;1456;51.840;12.184;2023-01-01T01:49:17;14.10;99.90
2893;DHT22;1456;51.840;12.184;2023-01-01T01:51:46;14.00;99.90
2893;DHT22;1456;51.840;12.184;2023-01-01T01:54:20;13.90;99.90
2893;DHT22;1456;51.840;12.184;2023-01-01T01:56:54;13.90;99.90
2893;DHT22;1456;51.840;12.184;2023-01-01T01:59:24;13.80;99.90
2893;DHT22;1456;51.840;12.184;2023-01-01T02:01:52;13.80;99.90
2893;DHT22;1456;51.840;12.184;2023-01-01T02:04:18;13.70;99.90
2893;DHT22;1456;51.840;12.184;2023-01-01T02:06:44;13.70;99.90
2893;DHT22;1456;51.840;12.184;2023-01-01T02:09:10;13.70;99.90
2893;DHT22;1456;51.840;12.184;2023-01-01T02:11:37;13.70;99.90
2893;DHT22;1456;51.840;12.184;2023-01-01T02:14:03;13.80;99.90
2893;DHT22;1456;51.840;12.184;2023-01-01T02:16:53;13.80;99.90
2893;DHT22;1456;51.840;12.184;2023-01-01T02:22:14;13.80;99.90
2893;DHT22;1456;51.840;12.184;2023-01-01T02:24:42;13.90;99.90
2893;DHT22;1456;51.840;12.184;2023-01-01T02:30:11;14.00;99.90
2893;DHT22;1456;51.840;12.184;2023-01-01T02:32:48;14.10;99.90
2893;DHT22;1456;51.840;12.184;2023-01-01T02:35:22;14.10;99.90
2893;DHT22;1456;51.840;12.184;2023-01-01T02:40:44;14.20;99.90
2893;DHT22;1456;51.840;12.184;2023-01-01T02:43:11;14.20;99.90
2893;DHT22;1456;51.840;12.184;2023-01-01T02:45:37;14.20;99.90
2893;DHT22;1456;51.840;12.184;2023-01-01T02:48:04;14.10;99.90
2893;DHT22;1456;51.840;12.184;2023-01-01T02:50:30;14.20;99.90
2893;DHT22;1456;51.840;12.184;2023-01-01T02:53:07;14.10;99.90
2893;DHT22;1456;51.840;12.184;2023-01-01T02:56:11;14.10;99.90
2893;DHT22;1456;51.840;12.184;2023-01-01T03:04:35;14.00;99.90
2893;DHT22;1456;51.840;12.184;2023-01-01T03:07:12;14.10;99.90
2893;DHT22;1456;51.840;12.184;2023-01-01T03:12:35;14.10;99.90
2893;DHT22;1456;51.840;12.184;2023-01-01T03:15:21;14.10;99.90
2893;DHT22;1456;51.840;12.184;2023-01-01T03:20:26;13.60;99.90
2893;DHT22;1456;51.840;12.184;2023-01-01T03:22:55;13.80;99.90
2893;DHT22;1456;51.840;12.184;2023-01-01T03:25:26;13.60;99.90
2893;DHT22;1456;51.840;12.184;2023-01-01T03:28:06;13.50;99.90
2893;DHT22;1456;51.840;12.184;2023-01-01T03:30:34;13.30;99.90
2893;DHT22;1456;51.840;12.184;2023-01-01T03:33:13;13.10;99.90
2893;DHT22;1456;51.840;12.184;2023-01-01T03:35:45;12.90;99.90
2893;DHT22;1456;51.840;12.184;2023-01-01T03:38:34;12.70;99.90
2893;DHT22;1456;51.840;12.184;2023-01-01T03:41:10;12.60;99.90
2893;DHT22;1456;51.840;12.184;2023-01-01T03:46:15;12.40;99.90
2893;DHT22;1456;51.840;12.184;2023-01-01T03:48:44;12.30;99.90
2893;DHT22;1456;51.840;12.184;2023-01-01T03:54:35;12.30;99.90
2893;DHT22;1456;51.840;12.184;2023-01-01T03:57:27;12.30;99.90
2893;DHT22;1456;51.840;12.184;2023-01-01T04:00:10;12.30;99.90
2893;DHT22;1456;51.840;12.184;2023-01-01T04:02:47;12.40;99.90
2893;DHT22;1456;51.840;12.184;2023-01-01T04:05:14;12.60;99.90
2893;DHT22;1456;51.840;12.184;2023-01-01T04:07:41;12.60;99.90
2893;DHT22;1456;51.840;12.184;2023-01-01T04:10:08;12.70;99.90
2893;DHT22;1456;51.840;12.184;2023-01-01T04:12:54;12.70;99.90
2893;DHT22;1456;51.840;12.184;2023-01-01T04:15:23;12.80;99.90
2893;DHT22;1456;51.840;12.184;2023-01-01T04:17:49;12.90;99.90
2893;DHT22;1456;51.840;12.184;2023-01-01T04:20:16;12.90;99.90
2893;DHT22;1456;51.840;12.184;2023-01-01T04:22:42;12.90;99.90
2893;DHT22;1456;51.840;12.184;2023-01-01T04:25:08;12.90;99.90
2893;DHT22;1456;51.840;12.184;2023-01-01T04:27:35;12.90;99.90
2893;DHT22;1456;51.840;12.184;2023-01-01T04:30:01;12.90;99.90
2893;DHT22;1456;51.840;12.184;2023-01-01T04:32:28;13.00;99.90
2893;DHT22;1456;51.840;12.184;2023-01-01T04:34:54;13.10;99.90
2893;DHT22;1456;51.840;12.184;2023-01-01T04:37:20;13.20;99.90
2893;DHT22;1456;51.840;12.184;2023-01-01T04:39:46;13.20;99.90
2893;DHT22;1456;51.840;12.184;2023-01-01T04:42:12;13.30;99.90
2893;DHT22;1456;51.840;12.184;2023-01-01T04:44:38;13.30;99.90
2893;DHT22;1456;51.840;12.184;2023-01-01T04:47:04;13.30;99.90
2893;DHT22;1456;51.840;12.184;2023-01-01T04:49:30;13.30;99.90
2893;DHT22;1456;51.840;12.184;2023-01-01T04:51:55;13.30;99.90
2893;DHT22;1456;51.840;12.184;2023-01-01T04:54:21;13.30;99.90
2893;DHT22;1456;51.840;12.184;2023-01-01T04:56:47;13.30;99.90
2893;DHT22;1456;51.840;12.184;2023-01-01T04:59:13;13.40;99.90
2893;DHT22;1456;51.840;12.184;2023-01-01T05:01:40;13.40;99.90
2893;DHT22;1456;51.840;12.184;2023-01-01T05:04:06;13.50;99.90
2893;DHT22;1456;51.840;12.184;2023-01-01T05:06:31;13.50;99.90
2893;DHT22;1456;51.840;12.184;2023-01-01T05:08:57;13.60;99.90
2893;DHT22;1456;51.840;12.184;2023-01-01T05:11:28;13.60;99.90
2893;DHT22;1456;51.840;12.184;2023-01-01T05:13:56;13.70;99.90
2893;DHT22;1456;51.840;12.184;2023-01-01T05:16:25;13.70;99.90
2893;DHT22;1456;51.840;12.184;2023-01-01T05:18:52;13.70;99.90
2893;DHT22;1456;51.840;12.184;2023-01-01T05:21:20;13.60;99.90
2893;DHT22;1456;51.840;12.184;2023-01-01T05:23:46;13.60;99.90
2893;DHT22;1456;51.840;12.184;2023-01-01T05:26:14;13.60;99.90
2893;DHT22;1456;51.840;12.184;2023-01-01T05:28:41;13.50;99.90
2893;DHT22;1456;51.840;12.184;2023-01-01T05:31:12;13.50;99.90
2893;DHT22;1456;51.840;12.184;2023-01-01T05:33:38;13.50;99.90
2893;DHT22;1456;51.840;12.184;2023-01-01T05:36:05;13.50;99.90
2893;DHT22;1456;51.840;12.184;2023-01-01T05:38:32;13.50;99.90
2893;DHT22;1456;51.840;12.184;2023-01-01T05:40:57;13.50;99.90
2893;DHT22;1456;51.840;12.184;2023-01-01T05:43:23;13.40;99.90
2893;DHT22;1456;51.840;12.184;2023-01-01T05:45:49;13.40;99.90
2893;DHT22;1456;51.840;12.184;2023-01-01T05:48:23;13.30;99.90
2893;DHT22;1456;51.840;12.184;2023-01-01T05:50:48;13.40;99.90
2893;DHT22;1456;51.840;12.184;2023-01-01T05:53:14;13.40;99.90
2893;DHT22;1456;51.840;12.184;2023-01-01T05:55:40;13.40;99.90
2893;DHT22;1456;51.840;12.184;2023-01-01T05:58:05;13.40;99.90
2893;DHT22;1456;51.840;12.184;2023-01-01T06:00:31;13.40;99.90
2893;DHT22;1456;51.840;12.184;2023-01-01T06:02:56;13.30;99.90
2893;DHT22;1456;51.840;12.184;2023-01-01T06:05:22;13.30;99.90
2893;DHT22;1456;51.840;12.184;2023-01-01T06:07:48;13.30;99.90
2893;DHT22;1456;51.840;12.184;2023-01-01T06:10:13;13.30;99.90
2893;DHT22;1456;51.840;12.184;2023-01-01T06:12:39;13.30;99.90
2893;DHT22;1456;51.840;12.184;2023-01-01T06:15:06;13.30;99.90
2893;DHT22;1456;51.840;12.184;2023-01-01T06:17:36;13.30;99.90
2893;DHT22;1456;51.840;12.184;2023-01-01T06:20:02;13.30;99.90
2893;DHT22;1456;51.840;12.184;2023-01-01T06:22:28;13.30;99.90
2893;DHT22;1456;51.840;12.184;2023-01-01T06:24:53;13.30;99.90
2893;DHT22;1456;51.840;12.184;2023-01-01T06:27:19;13.40;99.90
2893;DHT22;1456;51.840;12.184;2023-01-01T06:29:44;13.40;99.90
2893;DHT22;1456;51.840;12.184;2023-01-01T06:32:10;13.50;99.90
2893;DHT22;1456;51.840;12.184;2023-01-01T06:34:36;13.50;99.90
2893;DHT22;1456;51.840;12.184;2023-01-01T06:37:01;13.60;99.90
2893;DHT22;1456;51.840;12.184;2023-01-01T06:39:27;13.60;99.90
2893;DHT22;1456;51.840;12.184;2023-01-01T06:41:53;13.70;99.90
2893;DHT22;1456;51.840;12.184;2023-01-01T06:44:19;13.70;99.90
2893;DHT22;1456;51.840;12.184;2023-01-01T06:46:44;13.80;99.90
2893;DHT22;1456;51.840;12.184;2023-01-01T06:49:10;13.90;99.90
2893;DHT22;1456;51.840;12.184;2023-01-01T06:51:39;13.90;99.90
2893;DHT22;1456;51.840;12.184;2023-01-01T06:54:05;13.90;99.90
2893;DHT22;1456;51.840;12.184;2023-01-01T06:56:31;13.90;99.90
2893;DHT22;1456;51.840;12.184;2023-01-01T06:58:57;13.90;99.90
2893;DHT22;1456;51.840;12.184;2023-01-01T07:01:28;13.90;99.90
2893;DHT22;1456;51.840;12.184;2023-01-01T07:03:59;13.90;99.90
2893;DHT22;1456;51.840;12.184;2023-01-01T07:06:27;13.90;99.90
2893;DHT22;1456;51.840;12.184;2023-01-01T07:08:54;13.90;99.90
2893;DHT22;1456;51.840;12.184;2023-01-01T07:11:20;13.90;99.90
2893;DHT22;1456;51.840;12.184;2023-01-01T07:13:45;13.90;99.90
2893;DHT22;1456;51.840;12.184;2023-01-01T07:16:11;14.00;99.90
2893;DHT22;1456;51.840;12.184;2023-01-01T07:18:37;14.00;99.90
2893;DHT22;1456;51.840;12.184;2023-01-01T07:21:04;14.00;99.90
2893;DHT22;1456;51.840;12.184;2023-01-01T07:23:32;13.90;99.90
2893;DHT22;1456;51.840;12.184;2023-01-01T07:26:00;13.90;99.90
2893;DHT22;1456;51.840;12.184;2023-01-01T07:28:26;13.80;99.90
2893;DHT22;1456;51.840;12.184;2023-01-01T07:30:52;13.70;99.90
2893;DHT22;1456;51.840;12.184;2023-01-01T07:33:22;13.70;99.90
2893;DHT22;1456;51.840;12.184;2023-01-01T07:35:48;13.60;99.90
2893;DHT22;1456;51.840;12.184;2023-01-01T07:38:14;13.60;99.90
2893;DHT22;1456;51.840;12.184;2023-01-01T07:40:40;13.50;99.90
2893;DHT22;1456;51.840;12.184;2023-01-01T07:43:06;13.50;99.90
2893;DHT22;1456;51.840;12.184;2023-01-01T07:45:33;13.50;99.90
2893;DHT22;1456;51.840;12.184;2023-01-01T07:47:59;13.50;99.90
2893;DHT22;1456;51.840;12.184;2023-01-01T07:50:27;13.50;99.90
2893;DHT22;1456;51.840;12.184;2023-01-01T07:52:53;13.40;99.90
2893;DHT22;1456;51.840;12.184;2023-01-01T07:55:19;13.20;99.90
2893;DHT22;1456;51.840;12.184;2023-01-01T07:57:46;13.40;99.90
2893;DHT22;1456;51.840;12.184;2023-01-01T08:00:14;13.40;99.90
2893;DHT22;1456;51.840;12.184;2023-01-01T08:02:41;13.40;99.90
2893;DHT22;1456;51.840;12.184;2023-01-01T08:05:07;13.50;99.90
2893;DHT22;1456;51.840;12.184;2023-01-01T08:07:33;13.50;99.90
2893;DHT22;1456;51.840;12.184;2023-01-01T08:09:58;13.60;99.90
2893;DHT22;1456;51.840;12.184;2023-01-01T08:12:24;13.60;99.90
2893;DHT22;1456;51.840;12.184;2023-01-01T08:14:50;13.60;99.90
2893;DHT22;1456;51.840;12.184;2023-01-01T08:17:16;13.60;99.90
2893;DHT22;1456;51.840;12.184;2023-01-01T08:19:42;13.60;99.90
2893;DHT22;1456;51.840;12.184;2023-01-01T08:22:09;13.60;99.90
2893;DHT22;1456;51.840;12.184;2023-01-01T08:24:35;13.60;99.90
2893;DHT22;1456;51.840;12.184;2023-01-01T08:27:01;13.70;99.90
2893;DHT22;1456;51.840;12.184;2023-01-01T08:29:27;13.70;99.90
2893;DHT22;1456;51.840;12.184;2023-01-01T08:31:53;13.80;99.90
2893;DHT22;1456;51.840;12.184;2023-01-01T08:34:19;13.80;99.90
2893;DHT22;1456;51.840;12.184;2023-01-01T08:36:45;13.90;99.90
2893;DHT22;1456;51.840;12.184;2023-01-01T08:39:10;13.90;99.90
2893;DHT22;1456;51.840;12.184;2023-01-01T08:41:36;14.00;99.90
2893;DHT22;1456;51.840;12.184;2023-01-01T08:44:02;14.00;99.90
2893;DHT22;1456;51.840;12.184;2023-01-01T08:46:27;14.00;99.90
2893;DHT22;1456;51.840;12.184;2023-01-01T08:48:53;14.00;99.90
2893;DHT22;1456;51.840;12.184;2023-01-01T08:51:19;14.00;99.90
2893;DHT22;1456;51.840;12.184;2023-01-01T08:53:44;14.10;99.90
2893;DHT22;1456;51.840;12.184;2023-01-01T08:56:11;14.10;99.90
2893;DHT22;1456;51.840;12.184;2023-01-01T08:58:39;14.10;99.90
2893;DHT22;1456;51.840;12.184;2023-01-01T09:01:06;14.20;99.90
2893;DHT22;1456;51.840;12.184;2023-01-01T09:03:32;14.30;99.90
2893;DHT22;1456;51.840;12.184;2023-01-01T09:05:58;14.30;99.90
2893;DHT22;1456;51.840;12.184;2023-01-01T09:08:23;14.40;99.90
2893;DHT22;1456;51.840;12.184;2023-01-01T09:10:50;14.50;99.90
2893;DHT22;1456;51.840;12.184;2023-01-01T09:13:18;14.50;99.90
2893;DHT22;1456;51.840;12.184;2023-01-01T09:15:44;14.50;99.90
2893;DHT22;1456;51.840;12.184;2023-01-01T09:18:11;14.60;99.90
2893;DHT22;1456;51.840;12.184;2023-01-01T09:20:38;14.60;99.90
2893;DHT22;1456;51.840;12.184;2023-01-01T09:23:05;14.60;99.90
2893;DHT22;1456;51.840;12.184;2023-01-01T09:25:32;14.60;99.90
2893;DHT22;1456;51.840;12.184;2023-01-01T09:27:59;14.60;99.90
2893;DHT22;1456;51.840;12.184;2023-01-01T09:30:25;14.60;99.90
2893;DHT22;1456;51.840;12.184;2023-01-01T09:32:51;14.60;99.90
2893;DHT22;1456;51.840;12.184;2023-01-01T09:35:17;14.70;99.90
2893;DHT22;1456;51.840;12.184;2023-01-01T09:37:42;14.80;99.90
2893;DHT22;1456;51.840;12.184;2023-01-01T09:40:23;14.80;99.90
2893;DHT22;1456;51.840;12.184;2023-01-01T09:43:03;14.90;99.90
2893;DHT22;1456;51.840;12.184;2023-01-01T09:45:38;14.90;99.90
2893;DHT22;1456;51.840;12.184;2023-01-01T09:48:10;15.00;99.90
2893;DHT22;1456;51.840;12.184;2023-01-01T09:50:41;14.80;99.90
2893;DHT22;1456;51.840;12.184;2023-01-01T09:56:02;15.20;99.90
2893;DHT22;1456;51.840;12.184;2023-01-01T09:58:33;15.30;99.90
2893;DHT22;1456;51.840;12.184;2023-01-01T10:06:49;15.50;99.90
2893;DHT22;1456;51.840;12.184;2023-01-01T10:12:42;15.70;99.90
2893;DHT22;1456;51.840;12.184;2023-01-01T10:15:33;15.70;99.90
2893;DHT22;1456;51.840;12.184;2023-01-01T10:18:04;15.80;99.90
2893;DHT22;1456;51.840;12.184;2023-01-01T10:20:37;15.90;99.90
2893;DHT22;1456;51.840;12.184;2023-01-01T10:25:41;15.90;99.90
2893;DHT22;1456;51.840;12.184;2023-01-01T10:30:45;15.90;99.90
2893;DHT22;1456;51.840;12.184;2023-01-01T10:33:12;15.80;99.90
2893;DHT22;1456;51.840;12.184;2023-01-01T10:35:44;15.80;99.90
2893;DHT22;1456;51.840;12.184;2023-01-01T10:38:24;15.80;99.90
2893;DHT22;1456;51.840;12.184;2023-01-01T10:40:55;15.80;99.90
2893;DHT22;1456;51.840;12.184;2023-01-01T10:43:24;15.70;99.90
2893;DHT22;1456;51.840;12.184;2023-01-01T10:45:52;15.60;99.90
2893;DHT22;1456;51.840;12.184;2023-01-01T10:48:22;15.60;99.90
2893;DHT22;1456;51.840;12.184;2023-01-01T10:53:38;15.70;99.90
2893;DHT22;1456;51.840;12.184;2023-01-01T10:56:13;15.80;99.90
2893;DHT22;1456;51.840;12.184;2023-01-01T11:01:20;15.80;99.90
2893;DHT22;1456;51.840;12.184;2023-01-01T11:04:19;15.90;99.90
2893;DHT22;1456;51.840;12.184;2023-01-01T11:06:46;15.90;99.90
2893;DHT22;1456;51.840;12.184;2023-01-01T11:09:28;15.90;99.90
2893;DHT22;1456;51.840;12.184;2023-01-01T11:11:56;15.90;99.90
2893;DHT22;1456;51.840;12.184;2023-01-01T11:14:29;15.90;99.90
2893;DHT22;1456;51.840;12.184;2023-01-01T11:16:57;15.90;99.90
2893;DHT22;1456;51.840;12.184;2023-01-01T11:19:29;15.90;99.90
2893;DHT22;1456;51.840;12.184;2023-01-01T11:21:56;16.00;99.90
2893;DHT22;1456;51.840;12.184;2023-01-01T11:24:27;16.10;99.90
2893;DHT22;1456;51.840;12.184;2023-01-01T11:27:20;16.00;99.90
2893;DHT22;1456;51.840;12.184;2023-01-01T11:29:46;16.00;99.90
2893;DHT22;1456;51.840;12.184;2023-01-01T11:32:20;16.10;99.90
2893;DHT22;1456;51.840;12.184;2023-01-01T11:34:53;16.00;99.90
2893;DHT22;1456;51.840;12.184;2023-01-01T11:37:30;16.00;99.90
2893;DHT22;1456;51.840;12.184;2023-01-01T11:40:02;15.90;99.90
2893;DHT22;1456;51.840;12.184;2023-01-01T11:42:33;15.90;99.90
2893;DHT22;1456;51.840;12.184;2023-01-01T11:47:40;15.90;99.90
2893;DHT22;1456;51.840;12.184;2023-01-01T11:52:46;16.00;99.90
2893;DHT22;1456;51.840;12.184;2023-01-01T11:55:21;16.00;99.90
2893;DHT22;1456;51.840;12.184;2023-01-01T12:03:59;16.10;99.90
2893;DHT22;1456;51.840;12.184;2023-01-01T12:06:46;16.10;99.90
2893;DHT22;1456;51.840;12.184;2023-01-01T12:09:23;16.00;99.90
2893;DHT22;1456;51.840;12.184;2023-01-01T12:11:52;16.00;99.90
2893;DHT22;1456;51.840;12.184;2023-01-01T12:14:47;15.90;99.90
2893;DHT22;1456;51.840;12.184;2023-01-01T12:17:22;15.80;99.90
2893;DHT22;1456;51.840;12.184;2023-01-01T12:19:55;15.80;99.90
2893;DHT22;1456;51.840;12.184;2023-01-01T12:22:22;15.70;99.90
2893;DHT22;1456;51.840;12.184;2023-01-01T12:24:49;15.70;99.90
2893;DHT22;1456;51.840;12.184;2023-01-01T12:44:05;15.70;99.90
2893;DHT22;1456;51.840;12.184;2023-01-01T12:46:49;15.80;99.90
2893;DHT22;1456;51.840;12.184;2023-01-01T12:58:05;15.90;99.90
2893;DHT22;1456;51.840;12.184;2023-01-01T13:00:36;16.00;99.90
2893;DHT22;1456;51.840;12.184;2023-01-01T13:03:14;15.90;99.90
2893;DHT22;1456;51.840;12.184;2023-01-01T13:05:46;15.90;99.90
2893;DHT22;1456;51.840;12.184;2023-01-01T13:08:12;15.80;99.90
2893;DHT22;1456;51.840;12.184;2023-01-01T13:10:41;15.80;99.90
2893;DHT22;1456;51.840;12.184;2023-01-01T13:13:07;15.80;99.90
2893;DHT22;1456;51.840;12.184;2023-01-01T13:20:33;15.70;99.90
2893;DHT22;1456;51.840;12.184;2023-01-01T13:23:00;15.70;99.90
2893;DHT22;1456;51.840;12.184;2023-01-01T13:25:26;15.70;99.90
2893;DHT22;1456;51.840;12.184;2023-01-01T13:33:27;15.60;99.90
2893;DHT22;1456;51.840;12.184;2023-01-01T13:41:43;15.60;99.90
2893;DHT22;1456;51.840;12.184;2023-01-01T13:44:19;15.50;99.90
2893;DHT22;1456;51.840;12.184;2023-01-01T13:47:28;15.50;99.90
2893;DHT22;1456;51.840;12.184;2023-01-01T13:50:19;15.40;99.90
2893;DHT22;1456;51.840;12.184;2023-01-01T13:53:11;15.40;99.90
2893;DHT22;1456;51.840;12.184;2023-01-01T13:55:55;15.30;99.90
2893;DHT22;1456;51.840;12.184;2023-01-01T13:58:47;15.30;99.90
2893;DHT22;1456;51.840;12.184;2023-01-01T14:01:48;15.20;99.90
2893;DHT22;1456;51.840;12.184;2023-01-01T14:06:53;15.10;99.90
2893;DHT22;1456;51.840;12.184;2023-01-01T14:09:20;15.10;99.90
2893;DHT22;1456;51.840;12.184;2023-01-01T14:11:46;15.10;99.90
2893;DHT22;1456;51.840;12.184;2023-01-01T14:16:50;15.00;99.90
2893;DHT22;1456;51.840;12.184;2023-01-01T14:19:17;15.00;99.90
2893;DHT22;1456;51.840;12.184;2023-01-01T14:21:43;15.00;99.90
2893;DHT22;1456;51.840;12.184;2023-01-01T14:24:13;15.00;99.90
2893;DHT22;1456;51.840;12.184;2023-01-01T14:26:39;14.90;99.90
2893;DHT22;1456;51.840;12.184;2023-01-01T14:29:08;14.90;99.90
2893;DHT22;1456;51.840;12.184;2023-01-01T14:31:39;14.80;99.90
2893;DHT22;1456;51.840;12.184;2023-01-01T14:34:25;14.80;99.90
2893;DHT22;1456;51.840;12.184;2023-01-01T14:36:53;14.80;99.90
2893;DHT22;1456;51.840;12.184;2023-01-01T14:39:33;14.80;99.90
2893;DHT22;1456;51.840;12.184;2023-01-01T14:42:14;14.70;99.90
2893;DHT22;1456;51.840;12.184;2023-01-01T14:44:42;14.70;99.90
2893;DHT22;1456;51.840;12.184;2023-01-01T14:47:24;14.60;99.90
2893;DHT22;1456;51.840;12.184;2023-01-01T14:49:51;14.50;99.90
2893;DHT22;1456;51.840;12.184;2023-01-01T14:52:26;14.50;99.90
2893;DHT22;1456;51.840;12.184;2023-01-01T14:55:00;14.40;99.90
2893;DHT22;1456;51.840;12.184;2023-01-01T14:57:30;14.20;99.90
2893;DHT22;1456;51.840;12.184;2023-01-01T14:59:57;14.30;99.90
2893;DHT22;1456;51.840;12.184;2023-01-01T15:02:25;14.20;99.90
2893;DHT22;1456;51.840;12.184;2023-01-01T15:04:51;14.10;99.90
2893;DHT22;1456;51.840;12.184;2023-01-01T15:07:27;14.10;99.90
2893;DHT22;1456;51.840;12.184;2023-01-01T15:09:56;14.10;99.90
2893;DHT22;1456;51.840;12.184;2023-01-01T15:12:25;14.10;99.90
2893;DHT22;1456;51.840;12.184;2023-01-01T15:14:52;14.10;99.90
2893;DHT22;1456;51.840;12.184;2023-01-01T15:17:23;14.00;99.90
2893;DHT22;1456;51.840;12.184;2023-01-01T15:20:19;14.00;99.90
2893;DHT22;1456;51.840;12.184;2023-01-01T15:22:46;13.90;99.90
2893;DHT22;1456;51.840;12.184;2023-01-01T15:25:13;13.90;99.90
2893;DHT22;1456;51.840;12.184;2023-01-01T15:27:40;13.90;99.90
2893;DHT22;1456;51.840;12.184;2023-01-01T15:30:06;13.90;99.90
2893;DHT22;1456;51.840;12.184;2023-01-01T15:32:34;13.90;99.90
2893;DHT22;1456;51.840;12.184;2023-01-01T15:35:03;14.00;99.90
2893;DHT22;1456;51.840;12.184;2023-01-01T15:37:41;14.00;99.90
2893;DHT22;1456;51.840;12.184;2023-01-01T15:45:34;14.00;99.90
2893;DHT22;1456;51.840;12.184;2023-01-01T15:50:32;14.00;99.90
2893;DHT22;1456;51.840;12.184;2023-01-01T15:53:01;14.00;99.90
2893;DHT22;1456;51.840;12.184;2023-01-01T15:55:33;14.00;99.90
2893;DHT22;1456;51.840;12.184;2023-01-01T15:58:00;14.00;99.90
2893;DHT22;1456;51.840;12.184;2023-01-01T16:00:29;14.00;99.90
2893;DHT22;1456;51.840;12.184;2023-01-01T16:02:59;13.90;99.90
2893;DHT22;1456;51.840;12.184;2023-01-01T16:05:26;13.90;99.90
2893;DHT22;1456;51.840;12.184;2023-01-01T16:08:00;13.90;99.90
2893;DHT22;1456;51.840;12.184;2023-01-01T16:10:26;13.90;99.90
2893;DHT22;1456;51.840;12.184;2023-01-01T16:12:52;13.90;99.90
2893;DHT22;1456;51.840;12.184;2023-01-01T16:15:18;13.90;99.90
2893;DHT22;1456;51.840;12.184;2023-01-01T16:17:44;14.00;99.90
2893;DHT22;1456;51.840;12.184;2023-01-01T16:20:17;14.00;99.90
2893;DHT22;1456;51.840;12.184;2023-01-01T16:22:43;14.00;99.90
2893;DHT22;1456;51.840;12.184;2023-01-01T16:25:13;14.10;99.90
2893;DHT22;1456;51.840;12.184;2023-01-01T16:27:39;14.10;99.90
2893;DHT22;1456;51.840;12.184;2023-01-01T16:30:05;14.10;99.90
2893;DHT22;1456;51.840;12.184;2023-01-01T16:32:31;14.10;99.90
2893;DHT22;1456;51.840;12.184;2023-01-01T16:34:56;14.20;99.90
2893;DHT22;1456;51.840;12.184;2023-01-01T16:37:22;14.20;99.90
2893;DHT22;1456;51.840;12.184;2023-01-01T16:39:48;14.30;99.90
2893;DHT22;1456;51.840;12.184;2023-01-01T16:42:14;14.30;99.90
2893;DHT22;1456;51.840;12.184;2023-01-01T16:44:40;14.30;99.90
2893;DHT22;1456;51.840;12.184;2023-01-01T16:47:06;14.30;99.90
2893;DHT22;1456;51.840;12.184;2023-01-01T16:49:32;14.30;99.90
2893;DHT22;1456;51.840;12.184;2023-01-01T16:51:57;14.40;99.90
2893;DHT22;1456;51.840;12.184;2023-01-01T16:54:23;14.30;99.90
2893;DHT22;1456;51.840;12.184;2023-01-01T16:56:49;14.30;99.90
2893;DHT22;1456;51.840;12.184;2023-01-01T16:59:14;14.30;99.90
2893;DHT22;1456;51.840;12.184;2023-01-01T17:01:40;14.30;99.90
2893;DHT22;1456;51.840;12.184;2023-01-01T17:04:06;14.30;99.90
2893;DHT22;1456;51.840;12.184;2023-01-01T17:06:31;14.30;99.90
2893;DHT22;1456;51.840;12.184;2023-01-01T17:09:00;14.40;99.90
2893;DHT22;1456;51.840;12.184;2023-01-01T17:11:26;14.30;99.90
2893;DHT22;1456;51.840;12.184;2023-01-01T17:13:52;14.40;99.90
2893;DHT22;1456;51.840;12.184;2023-01-01T17:16:17;14.40;99.90
2893;DHT22;1456;51.840;12.184;2023-01-01T17:18:50;14.40;99.90
2893;DHT22;1456;51.840;12.184;2023-01-01T17:21:17;14.40;99.90
2893;DHT22;1456;51.840;12.184;2023-01-01T17:23:43;14.30;99.90
2893;DHT22;1456;51.840;12.184;2023-01-01T17:26:17;14.30;99.90
2893;DHT22;1456;51.840;12.184;2023-01-01T17:28:44;14.20;99.90
2893;DHT22;1456;51.840;12.184;2023-01-01T17:31:14;14.20;99.90
2893;DHT22;1456;51.840;12.184;2023-01-01T17:33:40;14.20;99.90
2893;DHT22;1456;51.840;12.184;2023-01-01T17:36:07;14.20;99.90
2893;DHT22;1456;51.840;12.184;2023-01-01T17:38:33;14.20;99.90
2893;DHT22;1456;51.840;12.184;2023-01-01T17:41:06;14.20;99.90
2893;DHT22;1456;51.840;12.184;2023-01-01T17:43:34;14.20;99.90
2893;DHT22;1456;51.840;12.184;2023-01-01T17:46:11;14.20;99.90
2893;DHT22;1456;51.840;12.184;2023-01-01T17:48:37;14.20;99.90
2893;DHT22;1456;51.840;12.184;2023-01-01T17:51:03;14.10;99.90
2893;DHT22;1456;51.840;12.184;2023-01-01T17:53:29;14.10;99.90